Airfield :
LOGIN :

Register | Disclaimer

   EN    FR    IT 

 










Legend :    VFR   Marginal VFR   IFR   Intensive IFR   Very Intensive IFR
Visi :
Ceiling :
>= 8 km
>= 3000ft
5 to 8 km
1000 to 3000 ft
1500m to 5 km
500 to 1000 ft
800 to 1500m
200 to 500 ft
< 800m
< 200 ft
Symbols :   Thunderstorms  Fog  Heavy snow  Heavy precipitations  Wind > 20 kt
SIGMETs :     Misc.  Thunderstorms  Icing  Turbulence  Mountain Waves  Volcanic Ashes






- Airport Elevation : 943 ft


LIMA - Torino / Aeritalia

CURRENT METAR :
  • 141350Z VRB04KT CAVOK 27/13 Q1021

EXPIRED METARs :
  • 141250Z 25005KT 220V290 CAVOK 27/14 Q1022
  • 141150Z 18004KT 080V200 CAVOK 26/11 Q1023
  • 141050Z 05003KT 350V110 CAVOK 25/12 Q1023
  • 140950Z 06003KT 360V130 CAVOK 23/12 Q1024

TAF N/A



MET'MAP, your aeronautical weather chart ! - Copyright ORBIFLY December 2007 - Disclaimer

ORBIFLY MET'MAP TEAM :

Programming & Development : Alexandra Zaïnal
Original concept : Baudouin d'Aumeries
Technical & hardware support : Manuel Goepfert
Assistance : Marc-Olivier Méhu




SOURCES & CREDITS :

   NOAA